Main page
METAR-TAF:

METAR-TAF

Airports :

Edinburgh Airport

Edinburgh, Scotland

latitude: 55-57N, longitude: 003-21W, elevation: 41 m

Current weather observation

The report was made 21 minutes ago, at 07:50 UTC
Wind 14 kt from the West/Southwest
Temperature 9°C
Humidity 81%
Pressure 1011 hPa
Visibility 10 km or more
no clouds below 1500 m and no cumulonimbus

METAR: EGPH 220750Z 24014KT CAVOK 09/06 Q1011

Time: 09:11 (08:11 UTC)

Forecast

The report was made 3 hours and 13 minutes ago, at 04:58 UTC
Forecast valid from 22 at 06 UTC to 23 at 06 UTC
Wind 12 kt from the West/Southwest
Visibility 10 km or more
Few clouds at a height of 4000 ft
Temporary
from 22 at 06 UTC to 22 at 09 UTC
Wind 18 kt from the West/Southwest with gusts up to 28 kt

TAF: EGPH 220458Z 2206/2306 24012KT 9999 FEW040 TEMPO 2206/2209 25018G28KT

Weather observations and forecasts of more than 4000 airports (METAR and TAF reports).

The available stations are represented by yellow and red dots on the map.

Hover mouse over dot to see the name of the station.

Then click to see weather observations and forecasts.

To change the map : click on the green buttons with a black cross to zoom in, on the green button with a dash to zoom out, or on the green arrows for adjacent maps.


METAR-TAF: